Time;durP1;ratioP1;P1;durP2;ratioP2;P2;SDS_P1;SDS_P2;PMS_P1;PMS_P2;Temp;Humidity;BMP_temperature;BMP_pressure;BME280_temperature;BME280_humidity;BME280_pressure;Samples;Min_cycle;Max_cycle;Signal;HPM_P1;HPM_P2
2021/09/28 00:01:17;;;;;;;3.67;1.58;;;;;;;16.61;77.93;100787.09;10316795;28;20124;-63
2021/09/28 00:06:18;;;;;;;3.60;1.42;;;;;;;16.56;77.03;100794.75;10312121;28;20062;-66
2021/09/28 00:11:20;;;;;;;2.55;1.15;;;;;;;16.60;78.22;100800.66;10316841;28;20120;-62
2021/09/28 00:16:21;;;;;;;3.92;1.65;;;;;;;16.63;79.19;100807.59;10310582;28;20166;-63
2021/09/28 00:21:23;;;;;;;3.03;1.67;;;;;;;16.57;77.93;100791.09;10312733;28;20149;-63
2021/09/28 00:26:24;;;;;;;1.92;1.35;;;;;;;16.55;78.19;100798.44;10321026;28;20784;-62
2021/09/28 00:31:26;;;;;;;4.13;1.67;;;;;;;16.53;78.37;100808.50;10325076;28;20345;-62
2021/09/28 00:36:27;;;;;;;3.63;1.70;;;;;;;16.49;78.71;100801.72;10320044;28;20060;-62
2021/09/28 00:41:29;;;;;;;3.90;1.50;;;;;;;16.44;79.16;100801.34;10324588;28;20111;-64
2021/09/28 00:46:30;;;;;;;4.18;1.48;;;;;;;16.51;79.91;100813.16;10320638;28;20090;-66
2021/09/28 00:51:33;;;;;;;2.70;1.65;;;;;;;16.48;80.07;100818.00;10312586;28;20081;-62
2021/09/28 00:56:34;;;;;;;4.43;2.53;;;;;;;16.42;80.54;100820.28;10307732;28;20156;-62
2021/09/28 01:01:35;;;;;;;5.95;2.90;;;;;;;16.38;80.35;100820.72;10318587;28;20054;-62
2021/09/28 01:06:37;;;;;;;3.67;2.13;;;;;;;16.29;80.62;100818.91;10314105;28;20046;-62
2021/09/28 01:11:40;;;;;;;5.20;2.30;;;;;;;16.25;81.26;100823.72;10321251;28;20268;-64
2021/09/28 01:16:41;;;;;;;4.05;1.80;;;;;;;16.21;80.46;100825.00;10313825;28;20115;-63
2021/09/28 01:21:43;;;;;;;4.80;2.25;;;;;;;16.19;81.27;100825.16;10315798;28;20070;-62
2021/09/28 01:26:45;;;;;;;3.25;1.55;;;;;;;16.20;81.01;100823.34;10333804;28;20129;-62
2021/09/28 01:31:47;;;;;;;7.28;1.92;;;;;;;16.22;80.79;100822.19;10315480;28;20074;-62
2021/09/28 01:36:49;;;;;;;3.28;2.10;;;;;;;16.20;81.55;100820.66;10315817;28;20129;-62
2021/09/28 01:41:53;;;;;;;4.50;2.45;;;;;;;16.02;82.11;100817.88;10311488;28;20100;-62
2021/09/28 01:46:54;;;;;;;2.78;1.80;;;;;;;16.07;83.23;100823.66;10322665;28;20074;-62
2021/09/28 01:51:56;;;;;;;3.13;2.13;;;;;;;16.08;81.65;100826.19;10306750;28;20130;-63
2021/09/28 01:56:57;;;;;;;3.22;1.90;;;;;;;16.02;81.59;100824.09;10303909;28;20125;-62
2021/09/28 02:02:00;;;;;;;4.43;2.30;;;;;;;15.94;80.44;100828.47;10312549;28;20318;-62
2021/09/28 02:07:02;;;;;;;5.40;2.22;;;;;;;15.93;80.53;100834.84;10311772;28;20085;-63
2021/09/28 02:12:04;;;;;;;2.85;1.85;;;;;;;15.89;80.11;100837.81;10317157;28;20212;-63
2021/09/28 02:17:05;;;;;;;7.63;1.98;;;;;;;15.85;79.03;100848.97;10312811;28;20066;-63
2021/09/28 02:22:07;;;;;;;4.50;1.63;;;;;;;15.85;79.40;100843.59;10312314;28;20078;-62
2021/09/28 02:27:08;;;;;;;3.70;1.42;;;;;;;15.81;78.32;100848.44;10314676;28;20073;-63
2021/09/28 02:32:09;;;;;;;4.68;1.63;;;;;;;15.76;78.71;100845.28;10312528;28;20577;-62
2021/09/28 02:37:12;;;;;;;4.40;1.50;;;;;;;15.74;79.00;100852.63;10296561;28;21014;-65
2021/09/28 02:42:14;;;;;;;2.85;0.98;;;;;;;15.63;77.80;100856.31;10318587;28;20117;-62
2021/09/28 02:47:15;;;;;;;4.65;1.75;;;;;;;15.57;78.61;100867.63;10325119;28;20523;-62
2021/09/28 02:52:16;;;;;;;5.20;1.70;;;;;;;15.58;78.38;100863.94;10324051;28;20088;-62
2021/09/28 02:57:18;;;;;;;3.03;0.82;;;;;;;15.55;78.09;100867.78;10317009;28;20043;-62
2021/09/28 03:02:19;;;;;;;5.10;1.33;;;;;;;15.52;77.62;100862.69;10321080;28;20571;-62
2021/09/28 03:07:21;;;;;;;3.67;0.80;;;;;;;15.49;77.79;100864.78;10312053;28;20488;-67
2021/09/28 03:12:23;;;;;;;3.20;1.20;;;;;;;15.48;77.44;100871.16;10316466;28;20049;-62
2021/09/28 03:17:25;;;;;;;2.05;0.75;;;;;;;15.44;77.32;100859.84;10329880;28;20605;-62
2021/09/28 03:22:27;;;;;;;2.30;0.75;;;;;;;15.41;77.05;100876.22;10318451;28;20099;-62
2021/09/28 03:27:28;;;;;;;3.30;0.90;;;;;;;15.41;76.87;100872.69;10321578;28;20058;-63
2021/09/28 03:32:30;;;;;;;4.30;1.00;;;;;;;15.40;77.25;100887.09;10319039;28;20043;-61
2021/09/28 03:37:32;;;;;;;4.00;0.95;;;;;;;15.37;77.19;100893.56;10322130;28;20057;-62
2021/09/28 03:42:33;;;;;;;3.13;1.13;;;;;;;15.38;77.35;100898.78;10320483;28;20125;-63
2021/09/28 03:47:35;;;;;;;5.20;1.50;;;;;;;15.36;77.15;100891.91;10319421;28;20092;-61
2021/09/28 03:52:36;;;;;;;4.88;1.23;;;;;;;15.34;77.18;100891.16;10314797;28;20140;-62
2021/09/28 03:57:38;;;;;;;3.15;0.90;;;;;;;15.35;77.51;100895.56;10308811;28;20514;-63
2021/09/28 04:02:39;;;;;;;2.88;0.95;;;;;;;15.29;77.02;100902.31;10308975;28;20046;-63
2021/09/28 04:07:41;;;;;;;4.53;1.42;;;;;;;15.32;77.22;100901.19;10319676;28;20806;-62
2021/09/28 04:12:42;;;;;;;4.63;1.52;;;;;;;15.39;78.38;100899.66;10316141;28;20077;-61
2021/09/28 04:17:44;;;;;;;3.25;1.10;;;;;;;15.35;77.91;100915.16;10320383;28;20065;-62
2021/09/28 04:22:45;;;;;;;4.03;1.27;;;;;;;15.33;78.18;100913.63;10319473;28;20183;-63
2021/09/28 04:27:47;;;;;;;5.40;1.33;;;;;;;15.30;78.21;100908.56;10313128;28;20643;-62
2021/09/28 04:32:48;;;;;;;5.80;1.70;;;;;;;15.26;79.70;100901.75;10316044;28;20161;-62
2021/09/28 04:37:49;;;;;;;3.60;1.30;;;;;;;15.24;79.17;100906.41;10310390;28;20416;-62
2021/09/28 04:42:51;;;;;;;4.18;1.88;;;;;;;15.20;78.92;100912.03;10322205;28;20144;-62
2021/09/28 04:47:53;;;;;;;6.15;1.70;;;;;;;15.19;79.52;100913.03;10317919;28;20069;-62
2021/09/28 04:52:54;;;;;;;3.40;1.80;;;;;;;15.18;79.69;100918.53;10311940;28;20459;-62
2021/09/28 04:57:55;;;;;;;3.88;1.67;;;;;;;15.13;79.09;100924.31;10307028;28;20069;-62
2021/09/28 05:02:57;;;;;;;4.38;1.88;;;;;;;15.09;79.15;100935.47;10310701;28;20520;-62
2021/09/28 05:07:59;;;;;;;4.00;1.73;;;;;;;15.05;79.33;100926.81;10320218;28;20507;-63
2021/09/28 05:13:00;;;;;;;5.25;2.72;;;;;;;14.94;79.79;100945.69;10315504;28;20082;-62
2021/09/28 05:18:01;;;;;;;4.32;1.75;;;;;;;14.88;80.57;100949.75;10306222;28;20086;-62
2021/09/28 05:23:03;;;;;;;5.85;2.40;;;;;;;14.79;79.41;100947.91;10316061;28;20100;-61
2021/09/28 05:28:05;;;;;;;7.63;2.65;;;;;;;14.72;79.61;100950.25;10307089;28;20042;-61
2021/09/28 05:33:07;;;;;;;4.03;2.33;;;;;;;14.73;79.85;100949.28;10311683;28;20562;-70
2021/09/28 05:38:09;;;;;;;3.92;2.50;;;;;;;14.62;80.69;100949.34;10314686;28;20074;-65
2021/09/28 05:43:10;;;;;;;4.75;2.42;;;;;;;14.62;81.47;100952.03;10318563;28;20046;-63
2021/09/28 05:48:11;;;;;;;9.02;2.50;;;;;;;14.75;79.28;100968.72;10312628;28;20149;-62
2021/09/28 05:53:13;;;;;;;5.38;1.90;;;;;;;14.71;80.36;100974.50;10313977;28;20551;-63
2021/09/28 05:58:15;;;;;;;7.43;1.98;;;;;;;14.85;79.26;100983.03;10307013;28;20134;-63
2021/09/28 06:03:16;;;;;;;4.40;2.20;;;;;;;14.92;78.72;100979.81;10313520;28;20569;-62
2021/09/28 06:08:18;;;;;;;6.15;2.58;;;;;;;14.88;79.14;100978.38;10326935;28;20050;-62
2021/09/28 06:13:19;;;;;;;5.45;2.63;;;;;;;14.95;79.94;100976.88;10313693;28;20616;-61
2021/09/28 06:18:21;;;;;;;8.82;3.22;;;;;;;15.04;78.40;100978.72;10320622;28;21806;-57
2021/09/28 06:23:22;;;;;;;4.78;3.05;;;;;;;15.08;78.23;100985.53;10323737;28;20053;-58
2021/09/28 06:28:23;;;;;;;4.90;2.60;;;;;;;15.21;78.65;100979.94;10319525;28;20132;-62
2021/09/28 06:33:25;;;;;;;6.03;2.25;;;;;;;15.33;77.78;100983.38;10323361;28;20196;-61
2021/09/28 06:38:26;;;;;;;4.07;2.08;;;;;;;15.40;77.39;100972.94;10328329;28;20492;-62
2021/09/28 06:43:28;;;;;;;7.05;3.20;;;;;;;15.47;77.51;100976.78;10323193;28;20054;-61
2021/09/28 06:48:29;;;;;;;5.35;3.28;;;;;;;15.49;77.04;100983.69;10303902;28;20064;-63
2021/09/28 06:53:31;;;;;;;7.10;2.95;;;;;;;15.61;78.00;100979.03;10325005;28;20181;-63
2021/09/28 06:58:33;;;;;;;6.97;3.35;;;;;;;15.77;77.21;100986.56;10325046;28;20145;-62
2021/09/28 07:03:34;;;;;;;4.82;2.95;;;;;;;15.92;76.22;100984.34;10322630;28;20054;-62
2021/09/28 07:08:36;;;;;;;5.13;2.50;;;;;;;16.00;75.14;100986.31;10321110;28;20100;-62
2021/09/28 07:13:37;;;;;;;6.85;3.42;;;;;;;16.13;75.04;100989.56;10320647;28;20135;-62
2021/09/28 07:18:39;;;;;;;6.97;3.70;;;;;;;16.15;74.56;100984.91;10322465;28;20049;-62
2021/09/28 07:23:41;;;;;;;5.13;2.95;;;;;;;16.12;74.46;100985.19;10316018;28;20068;-62
2021/09/28 07:28:43;;;;;;;6.05;4.18;;;;;;;16.21;75.27;100986.16;10322662;28;20192;-62
2021/09/28 07:33:44;;;;;;;7.55;3.35;;;;;;;16.31;74.34;100991.56;10321197;28;20121;-62
2021/09/28 07:38:45;;;;;;;5.07;3.83;;;;;;;16.42;74.38;100986.88;10318566;28;20137;-62
2021/09/28 07:43:47;;;;;;;6.57;3.33;;;;;;;16.54;73.66;101000.13;10321330;28;20781;-61
2021/09/28 07:48:48;;;;;;;6.80;3.65;;;;;;;16.82;73.85;101003.75;10321317;28;20513;-62
2021/09/28 07:53:50;;;;;;;7.45;3.58;;;;;;;17.05;72.77;100993.50;10320702;28;20415;-62
2021/09/28 07:58:52;;;;;;;7.00;3.95;;;;;;;17.24;70.70;100999.81;10320754;28;20141;-62
2021/09/28 08:03:53;;;;;;;7.13;4.25;;;;;;;17.34;69.87;100992.53;10319210;28;20731;-61
2021/09/28 08:08:54;;;;;;;9.88;4.28;;;;;;;17.57;70.56;100992.97;10321210;28;20447;-62
2021/09/28 08:13:57;;;;;;;10.40;5.50;;;;;;;17.77;67.90;100998.22;10321731;28;20060;-62
2021/09/28 08:18:58;;;;;;;7.35;4.07;;;;;;;17.91;67.72;101003.13;10320782;28;20132;-61
2021/09/28 08:24:00;;;;;;;7.57;3.67;;;;;;;18.05;67.48;101006.28;10320195;28;20144;-61
2021/09/28 08:29:08;;;;;;;7.03;3.88;;;;;;;18.07;64.90;101009.66;10317132;28;20069;-62
2021/09/28 08:34:12;;;;;;;8.35;3.42;;;;;;;18.11;65.20;101002.97;10318970;28;20088;-62
2021/09/28 08:39:15;;;;;;;6.47;3.70;;;;;;;18.34;64.57;100995.22;10317737;28;20186;-62
2021/09/28 08:44:17;;;;;;;8.40;3.40;;;;;;;18.70;63.39;100995.16;10318172;28;20060;-62
2021/09/28 08:49:20;;;;;;;7.10;3.92;;;;;;;19.17;61.89;100996.63;10318605;28;20132;-62
2021/09/28 08:54:22;;;;;;;10.85;4.32;;;;;;;19.54;60.48;100995.41;10314964;28;20216;-65
2021/09/28 08:59:38;;;;;;;8.43;4.13;;;;;;;19.59;58.78;100995.75;10315344;28;20058;-61
2021/09/28 09:04:42;;;;;;;6.47;3.92;;;;;;;19.52;57.03;100992.88;10302786;28;20125;-61
2021/09/28 09:09:48;;;;;;;9.00;4.00;;;;;;;19.48;59.13;100993.38;10310149;28;20491;-61
2021/09/28 09:14:49;;;;;;;7.47;3.97;;;;;;;19.76;57.70;100991.25;10315848;28;20049;-61
2021/09/28 09:19:51;;;;;;;5.30;3.45;;;;;;;20.06;57.56;100986.25;10317918;28;20148;-61
2021/09/28 09:24:54;;;;;;;8.82;3.10;;;;;;;20.30;55.45;100983.53;10318159;28;20078;-63
2021/09/28 09:30:19;;;;;;;5.55;2.20;;;;;;;20.58;53.87;100990.44;10314050;28;20061;-62
2021/09/28 09:35:30;;;;;;;5.03;2.40;;;;;;;20.68;53.66;100985.72;10317375;28;20060;-60
2021/09/28 09:40:38;;;;;;;6.05;3.17;;;;;;;20.33;53.47;100978.81;10318418;28;20483;-60
2021/09/28 09:45:40;;;;;;;7.68;3.00;;;;;;;20.04;54.93;100983.72;10286022;28;20136;-61
2021/09/28 09:50:42;;;;;;;5.43;2.63;;;;;;;19.60;56.76;100967.75;10286234;28;20054;-60
2021/09/28 09:55:43;;;;;;;5.70;2.60;;;;;;;19.18;55.73;100963.22;10325529;28;20112;-62
2021/09/28 10:00:45;;;;;;;3.85;1.77;;;;;;;20.12;54.69;100954.00;10326636;28;20132;-62
2021/09/28 10:05:47;;;;;;;5.50;1.75;;;;;;;23.23;46.28;100951.38;10320242;28;20061;-61
2021/09/28 10:10:56;;;;;;;4.53;1.75;;;;;;;24.18;43.15;100951.34;10319996;28;20503;-62
2021/09/28 10:16:36;;;;;;;4.80;1.95;;;;;;;24.95;40.02;100940.56;10282056;28;20142;-64
2021/09/28 10:21:43;;;;;;;7.28;1.73;;;;;;;25.88;37.78;100934.59;10285285;28;20058;-64
2021/09/28 10:26:47;;;;;;;5.68;1.30;;;;;;;24.64;40.31;100929.09;10319941;28;20060;-63
2021/09/28 10:31:48;;;;;;;6.65;1.35;;;;;;;25.26;39.26;100926.44;10319707;28;20136;-63
2021/09/28 10:36:52;;;;;;;3.65;1.35;;;;;;;26.68;36.32;100922.81;10322854;28;20124;-62
2021/09/28 10:41:59;;;;;;;6.55;1.20;;;;;;;26.14;36.65;100908.38;10314355;28;20054;-62
2021/09/28 10:47:02;;;;;;;8.82;1.98;;;;;;;25.68;37.53;100921.75;10321658;28;20066;-63
2021/09/28 10:52:21;;;;;;;4.50;1.27;;;;;;;25.22;37.90;100919.72;10324360;28;20220;-62
2021/09/28 11:03:17;;;;;;;6.40;1.90;;;;;;;22.66;41.58;100914.06;10323092;28;20121;-63
2021/09/28 11:08:21;;;;;;;4.80;1.35;;;;;;;22.19;44.07;100908.75;10324450;28;20049;-62
2021/09/28 11:13:29;;;;;;;5.72;1.65;;;;;;;21.91;43.66;100904.94;10324372;28;20140;-65
2021/09/28 11:18:32;;;;;;;4.10;1.27;;;;;;;22.26;43.21;100900.69;10319845;28;20062;-62
2021/09/28 11:23:33;;;;;;;3.47;1.02;;;;;;;25.51;37.63;100893.25;10322964;28;20136;-62
2021/09/28 11:28:35;;;;;;;5.43;1.05;;;;;;;25.12;36.68;100897.50;10324085;28;20046;-62
2021/09/28 11:33:42;;;;;;;6.35;2.25;;;;;;;24.48;37.70;100894.00;10323703;28;20064;-63
2021/09/28 11:38:46;;;;;;;3.95;1.38;;;;;;;25.91;35.98;100874.16;10324161;28;20101;-63
2021/09/28 11:43:53;;;;;;;3.85;1.05;;;;;;;32.41;25.87;100865.31;10323276;28;21287;-64
2021/09/28 11:49:08;;;;;;;4.40;1.30;;;;;;;35.60;21.13;100863.19;10322887;28;20058;-64
2021/09/28 11:54:12;;;;;;;4.53;0.90;;;;;;;37.12;19.85;100859.47;10319690;28;20707;-65
2021/09/28 11:59:17;;;;;;;3.88;1.00;;;;;;;38.75;17.10;100843.50;10322065;28;20132;-65
2021/09/28 12:09:59;;;;;;;2.70;0.90;;;;;;;35.02;20.30;100820.78;10320828;28;20049;-65
2021/09/28 12:15:07;;;;;;;3.67;1.13;;;;;;;29.59;25.94;100835.81;10319279;28;20704;-64
2021/09/28 12:20:14;;;;;;;6.75;1.30;;;;;;;28.13;28.74;100822.94;10321933;28;20121;-64
2021/09/28 12:25:34;;;;;;;7.43;1.05;;;;;;;32.70;23.66;100821.06;10325222;28;20234;-65
2021/09/28 12:30:50;;;;;;;2.43;0.77;;;;;;;38.61;17.59;100799.72;10323676;28;20684;-65
2021/09/28 12:35:54;;;;;;;4.03;1.33;;;;;;;41.31;14.51;100787.63;10321717;28;20423;-65
2021/09/28 12:41:07;;;;;;;5.03;1.20;;;;;;;43.23;13.28;100784.53;10323272;28;20165;-67
2021/09/28 12:46:09;;;;;;;4.80;0.90;;;;;;;36.72;18.29;100765.13;10323226;28;20100;-65
2021/09/28 12:51:19;;;;;;;4.43;1.35;;;;;;;37.43;17.93;100773.22;10325703;28;20046;-65
2021/09/28 12:56:20;;;;;;;4.80;0.90;;;;;;;35.38;19.18;100750.84;10324290;28;20045;-65
2021/09/28 13:01:21;;;;;;;4.07;1.00;;;;;;;32.95;22.40;100772.81;10322458;28;20103;-64
2021/09/28 13:06:23;;;;;;;4.43;0.90;;;;;;;37.40;18.28;100743.28;10323785;28;20041;-65
2021/09/28 13:11:24;;;;;;;3.72;1.20;;;;;;;38.85;16.20;100738.47;10317946;28;20119;-66
2021/09/28 13:16:26;;;;;;;5.70;0.90;;;;;;;41.01;15.38;100725.00;10319781;28;20050;-66
2021/09/28 13:21:28;;;;;;;2.22;0.70;;;;;;;41.13;14.27;100725.25;10321804;28;20049;-66
2021/09/28 13:26:29;;;;;;;2.63;0.70;;;;;;;42.06;14.08;100719.13;10321528;28;20121;-66
2021/09/28 13:31:30;;;;;;;3.90;0.55;;;;;;;34.93;19.26;100717.34;10318380;28;20491;-65
2021/09/28 13:36:37;;;;;;;3.08;1.15;;;;;;;31.28;23.68;100711.38;10319740;28;20062;-65
2021/09/28 13:41:38;;;;;;;7.10;1.23;;;;;;;30.50;24.16;100711.91;10318955;28;20062;-65
2021/09/28 13:46:40;;;;;;;4.32;0.90;;;;;;;29.01;26.71;100711.25;10318774;28;20049;-65
2021/09/28 13:51:41;;;;;;;4.18;0.75;;;;;;;29.00;27.09;100717.81;10320846;28;20057;-64
2021/09/28 13:56:43;;;;;;;3.33;0.68;;;;;;;29.91;25.04;100704.66;10319741;28;20065;-65
2021/09/28 14:01:44;;;;;;;2.75;0.70;;;;;;;28.73;26.33;100709.97;10318336;28;20085;-64
2021/09/28 14:06:46;;;;;;;5.95;0.82;;;;;;;27.78;27.49;100708.59;10318808;28;20065;-65
2021/09/28 14:11:48;;;;;;;4.00;0.70;;;;;;;27.57;28.01;100693.47;10313673;28;20054;-65
2021/09/28 14:16:50;;;;;;;3.13;0.93;;;;;;;27.25;28.60;100693.47;10315411;28;20102;-65
2021/09/28 14:21:51;;;;;;;2.88;0.65;;;;;;;26.56;29.62;100682.41;10320438;28;20129;-65
2021/09/28 14:26:53;;;;;;;2.45;0.80;;;;;;;25.87;30.83;100682.06;10318368;28;20049;-64
2021/09/28 14:31:54;;;;;;;3.60;0.80;;;;;;;25.24;31.85;100673.31;10327702;28;20052;-64
2021/09/28 14:36:55;;;;;;;3.07;1.00;;;;;;;24.69;32.23;100661.75;10324986;28;20129;-63
2021/09/28 14:41:57;;;;;;;4.10;0.90;;;;;;;24.32;33.39;100667.50;10328769;28;20148;-64
2021/09/28 14:46:58;;;;;;;4.50;1.73;;;;;;;23.53;33.64;100674.19;10327641;28;20100;-64
2021/09/28 14:52:00;;;;;;;3.53;0.85;;;;;;;23.42;35.46;100663.84;10328849;28;20057;-64
2021/09/28 14:57:02;;;;;;;13.70;9.48;;;;;;;23.21;36.27;100660.19;10328305;28;20119;-64
2021/09/28 15:02:04;;;;;;;4.07;0.70;;;;;;;22.93;35.83;100650.09;10325169;28;20050;-63
2021/09/28 15:07:06;;;;;;;2.93;1.10;;;;;;;22.64;36.85;100647.50;10327590;28;20128;-63
2021/09/28 15:12:09;;;;;;;3.63;0.47;;;;;;;22.44;36.58;100647.31;10327035;28;20064;-64
2021/09/28 15:17:10;;;;;;;2.47;1.05;;;;;;;22.28;37.50;100640.19;10331017;28;20123;-63
2021/09/28 15:22:12;;;;;;;2.65;1.00;;;;;;;21.93;38.31;100648.13;10325266;28;20133;-63
2021/09/28 15:27:13;;;;;;;6.85;0.95;;;;;;;21.84;38.90;100650.97;10323748;28;20378;-63
2021/09/28 15:32:17;;;;;;;4.15;1.02;;;;;;;21.61;39.01;100644.78;10321844;28;20696;-61
2021/09/28 15:37:19;;;;;;;3.42;1.42;;;;;;;21.52;39.41;100653.00;10321804;28;20121;-61
2021/09/28 15:42:20;;;;;;;2.63;0.95;;;;;;;21.31;40.03;100642.03;10322376;28;20149;-62
2021/09/28 15:47:22;;;;;;;2.80;0.73;;;;;;;20.99;40.88;100641.31;10322183;28;20127;-62
2021/09/28 15:52:24;;;;;;;3.80;0.77;;;;;;;20.91;41.82;100636.81;10311205;28;20216;-62
2021/09/28 15:57:25;;;;;;;4.03;0.82;;;;;;;20.81;41.08;100634.34;10318976;28;20089;-62
2021/09/28 16:02:27;;;;;;;3.35;0.95;;;;;;;20.56;41.66;100614.72;10322593;28;20050;-61
2021/09/28 16:07:34;;;;;;;2.83;1.15;;;;;;;20.50;42.68;100626.25;10298667;28;20858;-61
2021/09/28 16:12:36;;;;;;;3.05;0.70;;;;;;;20.41;42.56;100611.94;10314019;28;20053;-61
2021/09/28 16:17:37;;;;;;;3.05;0.95;;;;;;;20.30;43.33;100615.06;10320961;28;20073;-61
2021/09/28 16:22:38;;;;;;;4.10;1.23;;;;;;;20.19;43.76;100604.66;10317326;28;20049;-62
2021/09/28 16:27:40;;;;;;;4.80;1.48;;;;;;;20.02;44.59;100602.03;10316581;28;20602;-62
2021/09/28 16:32:41;;;;;;;4.80;1.05;;;;;;;19.88;43.70;100589.31;10315651;28;20363;-62
2021/09/28 16:37:43;;;;;;;5.13;1.48;;;;;;;19.81;46.01;100591.03;10316242;28;20081;-62
2021/09/28 16:42:44;;;;;;;5.95;1.30;;;;;;;19.73;45.95;100598.09;10317811;28;20049;-62
2021/09/28 16:47:46;;;;;;;3.30;1.13;;;;;;;19.59;46.42;100596.13;10319974;28;20057;-62
2021/09/28 16:52:48;;;;;;;4.07;1.30;;;;;;;19.50;46.73;100592.63;10317131;28;20116;-62
2021/09/28 16:57:49;;;;;;;4.90;1.52;;;;;;;19.35;47.21;100584.41;10320973;28;20045;-62
2021/09/28 17:02:51;;;;;;;3.08;1.10;;;;;;;19.26;47.35;100574.66;10318063;28;21828;-62
2021/09/28 17:07:52;;;;;;;6.00;1.75;;;;;;;19.14;47.95;100562.50;10320615;28;20132;-57
2021/09/28 17:12:54;;;;;;;5.40;1.73;;;;;;;19.14;49.13;100571.47;10316573;28;20188;-57
2021/09/28 17:17:56;;;;;;;3.95;2.00;;;;;;;19.07;49.95;100568.59;10319925;28;20124;-57
2021/09/28 17:22:57;;;;;;;2.80;1.63;;;;;;;19.00;49.76;100572.16;10316448;28;20061;-57
2021/09/28 17:27:59;;;;;;;4.00;1.70;;;;;;;18.95;50.13;100571.84;10318738;28;20069;-56
2021/09/28 17:33:03;;;;;;;5.80;2.20;;;;;;;18.91;50.79;100584.81;10315092;28;20159;-58
2021/09/28 17:38:05;;;;;;;3.08;1.63;;;;;;;18.83;50.97;100568.63;10311011;28;20557;-57
2021/09/28 17:43:06;;;;;;;5.50;2.10;;;;;;;18.75;51.42;100572.16;10315001;28;20111;-57
2021/09/28 17:48:08;;;;;;;4.70;3.58;;;;;;;18.61;50.97;100570.97;10316268;28;20054;-57
2021/09/28 17:53:24;;;;;;;3.97;2.05;;;;;;;18.57;51.47;100583.13;10310209;28;20447;-60
2021/09/28 17:58:25;;;;;;;3.97;2.33;;;;;;;18.46;51.39;100572.66;10311891;28;20524;-62
2021/09/28 18:03:26;;;;;;;4.13;2.08;;;;;;;18.36;51.07;100578.22;10318388;28;20046;-62
2021/09/28 18:08:28;;;;;;;4.70;2.30;;;;;;;18.31;51.28;100576.00;10323839;28;20060;-62
2021/09/28 18:13:29;;;;;;;3.70;2.00;;;;;;;18.17;51.27;100573.97;10319431;28;20511;-62
2021/09/28 18:18:31;;;;;;;4.68;1.85;;;;;;;18.08;51.61;100574.97;10323259;28;20165;-64
2021/09/28 18:23:32;;;;;;;7.32;6.10;;;;;;;18.02;51.07;100577.28;10302836;28;20137;-64
2021/09/28 18:28:34;;;;;;;30.50;27.48;;;;;;;17.97;51.09;100587.72;10327386;28;20068;-62
2021/09/28 18:33:35;;;;;;;13.10;10.55;;;;;;;17.95;51.62;100586.19;10326933;28;20141;-63
2021/09/28 18:38:37;;;;;;;5.25;2.65;;;;;;;17.87;51.58;100573.53;10324210;28;20150;-63
2021/09/28 18:43:41;;;;;;;5.07;3.25;;;;;;;17.85;52.03;100576.38;10325968;28;20133;-64
2021/09/28 18:48:42;;;;;;;6.30;2.35;;;;;;;17.87;52.46;100578.91;10326175;28;20042;-63
2021/09/28 18:53:46;;;;;;;2.83;2.53;;;;;;;17.85;52.57;100580.94;10319832;28;20543;-63
2021/09/28 18:58:55;;;;;;;4.70;2.23;;;;;;;17.83;52.32;100580.22;10319590;28;20623;-63
2021/09/28 19:04:06;;;;;;;4.18;2.17;;;;;;;17.77;53.48;100578.19;10314883;28;20336;-63
2021/09/28 19:09:12;;;;;;;6.38;2.80;;;;;;;17.74;54.33;100589.28;10325006;28;20129;-63
2021/09/28 19:14:13;;;;;;;5.90;2.60;;;;;;;17.63;56.36;100593.13;10314758;28;20126;-63
2021/09/28 19:19:17;;;;;;;6.75;2.42;;;;;;;17.57;55.45;100589.22;10318712;28;20167;-62
2021/09/28 19:24:21;;;;;;;4.68;2.20;;;;;;;17.45;54.83;100585.13;10320960;28;20168;-66
2021/09/28 19:29:25;;;;;;;5.57;2.58;;;;;;;17.38;54.93;100581.38;10321307;28;20495;-64
2021/09/28 19:34:27;;;;;;;3.00;2.38;;;;;;;17.31;55.48;100578.50;10318658;28;20132;-64
2021/09/28 19:39:41;;;;;;;4.93;2.35;;;;;;;17.27;55.75;100572.56;10320875;28;20481;-63
2021/09/28 19:44:43;;;;;;;9.02;2.80;;;;;;;17.22;56.43;100580.28;10318564;28;20174;-64
2021/09/28 19:49:49;;;;;;;5.25;1.80;;;;;;;17.17;56.24;100566.47;10321850;28;20052;-63
2021/09/28 19:55:02;;;;;;;5.88;2.35;;;;;;;17.11;56.39;100561.72;10318521;28;20192;-64
2021/09/28 20:00:17;;;;;;;4.50;2.28;;;;;;;17.04;56.94;100569.59;10319660;28;20136;-62
2021/09/28 20:37:19;;;;;;;9.85;4.55;;;;;;;16.56;60.68;100527.88;10280190;28;20569;-62
2021/09/28 20:42:22;;;;;;;7.43;3.80;;;;;;;16.46;61.36;100529.81;10282106;28;20074;-65
2021/09/28 20:47:23;;;;;;;8.45;2.70;;;;;;;16.38;61.86;100527.91;10278475;28;20046;-62
2021/09/28 20:52:25;;;;;;;6.03;2.63;;;;;;;16.32;62.32;100524.00;10271730;28;20061;-63
2021/09/28 20:57:27;;;;;;;5.70;2.42;;;;;;;16.19;62.50;100519.00;10315992;28;20057;-63
2021/09/28 21:02:28;;;;;;;6.13;2.38;;;;;;;16.12;62.77;100511.69;10305092;28;20481;-63
2021/09/28 21:07:30;;;;;;;8.43;3.13;;;;;;;16.03;63.38;100518.84;10311853;28;20042;-63
2021/09/28 21:12:32;;;;;;;5.65;2.70;;;;;;;15.89;63.82;100517.53;10332086;28;20050;-63
2021/09/28 21:17:34;;;;;;;3.70;2.47;;;;;;;15.83;64.14;100507.41;10320155;28;20491;-64
2021/09/28 21:22:35;;;;;;;8.75;2.83;;;;;;;15.77;64.07;100503.44;10314415;28;20088;-62
2021/09/28 21:27:37;;;;;;;6.57;3.00;;;;;;;15.73;65.08;100504.72;10316513;28;20103;-62
2021/09/28 21:32:48;;;;;;;5.15;2.40;;;;;;;15.72;65.32;100495.00;10321422;28;20132;-63
2021/09/28 21:37:50;;;;;;;4.60;2.67;;;;;;;15.60;65.66;100496.19;10316242;28;20324;-63
2021/09/28 21:42:52;;;;;;;4.85;3.15;;;;;;;15.50;66.46;100490.91;10319967;28;20054;-63
2021/09/28 21:47:54;;;;;;;5.47;2.92;;;;;;;15.43;67.07;100503.22;10317767;28;20045;-62
2021/09/28 21:52:55;;;;;;;6.35;3.55;;;;;;;15.38;67.34;100490.25;10316716;28;20124;-63
2021/09/28 21:57:57;;;;;;;5.45;3.95;;;;;;;15.38;67.47;100488.41;10316465;28;20736;-62
2021/09/28 22:02:58;;;;;;;5.70;3.83;;;;;;;15.37;67.65;100480.50;10318420;28;20139;-62
2021/09/28 22:08:00;;;;;;;8.68;4.50;;;;;;;15.29;68.39;100469.69;10315892;28;20132;-62
2021/09/28 22:13:02;;;;;;;6.40;3.30;;;;;;;15.17;68.77;100464.50;10323238;28;20073;-63
2021/09/28 22:18:04;;;;;;;5.75;3.40;;;;;;;15.08;69.66;100454.69;10320201;28;20666;-62
2021/09/28 22:23:07;;;;;;;6.47;3.67;;;;;;;15.16;69.59;100452.13;10317661;28;20049;-63
2021/09/28 22:28:09;;;;;;;5.53;2.90;;;;;;;15.16;69.70;100451.25;10319354;28;20077;-61
2021/09/28 22:33:11;;;;;;;5.85;3.47;;;;;;;15.08;69.77;100438.59;10319983;28;20046;-64
2021/09/28 22:38:13;;;;;;;6.30;3.10;;;;;;;15.06;69.94;100437.91;10329757;28;20096;-65
2021/09/28 22:43:15;;;;;;;7.38;4.05;;;;;;;15.03;69.65;100440.88;10319018;28;20619;-60
2021/09/28 22:48:16;;;;;;;4.82;3.63;;;;;;;15.02;70.05;100433.84;10324067;28;20479;-61
2021/09/28 22:53:18;;;;;;;5.10;3.72;;;;;;;15.00;69.70;100425.09;10327650;28;20132;-61
2021/09/28 22:58:24;;;;;;;7.38;6.30;;;;;;;15.00;69.96;100425.09;10326690;28;20081;-62
2021/09/28 23:03:25;;;;;;;9.48;7.10;;;;;;;14.93;69.89;100418.63;10318717;28;20487;-61
2021/09/28 23:08:27;;;;;;;7.65;6.30;;;;;;;15.02;69.84;100426.63;10328202;28;20073;-62
2021/09/28 23:13:28;;;;;;;4.70;4.15;;;;;;;14.99;69.76;100424.25;10326043;28;20062;-61
2021/09/28 23:18:30;;;;;;;5.82;3.70;;;;;;;14.96;69.92;100410.31;10325158;28;20050;-61
2021/09/28 23:23:31;;;;;;;4.80;3.85;;;;;;;14.92;70.41;100412.44;10321834;28;20155;-61
2021/09/28 23:28:33;;;;;;;3.78;3.20;;;;;;;14.93;70.52;100408.75;10299797;28;20125;-62
2021/09/28 23:33:34;;;;;;;6.53;4.75;;;;;;;14.99;70.36;100418.03;10327367;28;20084;-63
2021/09/28 23:38:36;;;;;;;5.40;3.58;;;;;;;14.95;70.53;100409.47;10323136;28;20058;-60
2021/09/28 23:43:37;;;;;;;4.53;3.13;;;;;;;14.90;71.00;100414.41;10323879;28;20045;-63
2021/09/28 23:48:39;;;;;;;3.83;2.90;;;;;;;14.90;71.24;100402.84;10323392;28;20103;-62
2021/09/28 23:53:41;;;;;;;3.92;3.22;;;;;;;14.91;71.21;100404.56;10321301;28;20124;-62